Taloga, Oklahoma
Current Conditions -  °F | °C
As of 3:15 PM on Tuesday 21 Oct 2014 (Local Time) from KJWG Reporting Station
Broken Clouds Broken Clouds  
Wind Chill: 80°   Ceiling: 6500
Heat Index: 81°   Visibility: 10mi
Dew Point: 60°   Wind: 12mph
Humidity: 51%   Direction: 180°S
Pressure: 30.04"   Gusts: NA
Location:  36.04°N, 98.96°W
Report Text: KJWG 212015Z AUTO 18010KT 10SM SCT055 BKN065 27/16 A3004 RMK AO2 T02680158
Loading
Personal Weather Stations






























Interactive Weather Map
Tropical Storm Tracking
New forecast layout! Learn more

10-Day Weather Forecast

Advertisements
Track Severe Weather on mobile